Dai65tenjinmaru — JJ3950 — position and weather

sailwx.info

Track history (hours):
 
Tides and Currents Weather Stations Pressure Air Temp Water Temp Dewpoint Dewpoint Depression Visibility Wind Speed Wind Dir Waves Ship Positions

Dai65tenjinmaru

Last reported at 2018-Feb-21 10:49 UTC. Time now 2018-Feb-23 02:37 UTC.
Position N 35°01' E 140°11'.

Length 86 m; draft 5.6 m.

Type: Cargo ship. MMSI: 431301101.

Date/timePositionNaut miles runAvg speedWind from/ knotsBaromVisibWave heightAir tempDewpointWater temp
2018-Feb-21 10:49N 35°01' E 140°11'512.4
2018-Feb-21 10:27N 34°58' E 140°06'19 7.2
2018-Feb-21 07:46N 35°05' E 139°44'311.2
2018-Feb-21 07:30N 35°08' E 139°45'611.6
2018-Feb-21 07:00N 35°14' E 139°46'611.4
2018-Feb-21 06:30N 35°19' E 139°43'510.7
2018-Feb-21 06:00N 35°24' E 139°43'510.1
2018-Feb-21 05:30N 35°29' E 139°42'1 2.3
2018-Feb-21 05:00N 35°30' E 139°43'0 0.0
2018-Feb-21 04:30N 35°30' E 139°43'0 0.0
2018-Feb-21 04:00N 35°30' E 139°43'0 0.0
2018-Feb-21 03:30N 35°30' E 139°43'0 0.0
2018-Feb-21 03:00N 35°30' E 139°43'0 0.0
2018-Feb-21 02:30N 35°30' E 139°43'0 0.0
2018-Feb-21 02:00N 35°30' E 139°43'0 0.0
2018-Feb-21 01:30N 35°30' E 139°43'0 0.0
2018-Feb-21 01:01N 35°30' E 139°43'0 0.1
2018-Feb-21 00:30N 35°30' E 139°43'2 4.6
2018-Feb-21 00:00N 35°28' E 139°42'611.6
2018-Feb-20 23:30N 35°26' E 139°49'5 9.6
2018-Feb-20 23:00N 35°22' E 139°53'0 0.3
2018-Feb-20 22:30N 35°22' E 139°53'0 0.0
2018-Feb-20 21:54N 35°22' E 139°53'0 0.0
2018-Feb-20 21:30N 35°22' E 139°53'0 0.1
2018-Feb-20 21:00N 35°22' E 139°53'0 0.0
2018-Feb-20 20:30N 35°22' E 139°53'0 0.0
2018-Feb-20 20:00N 35°22' E 139°53'0 0.0
2018-Feb-20 19:27N 35°22' E 139°53'0 0.0
2018-Feb-20 19:00N 35°22' E 139°53'0 0.0
2018-Feb-20 18:27N 35°22' E 139°53'0 0.0
2018-Feb-20 18:00N 35°22' E 139°53'0 0.0
2018-Feb-20 17:30N 35°22' E 139°53'0 0.0
2018-Feb-20 17:00N 35°22' E 139°53'0 0.0
2018-Feb-20 16:24N 35°22' E 139°53'0 0.1
2018-Feb-20 16:00N 35°22' E 139°53'0 0.1
2018-Feb-20 15:30N 35°22' E 139°53'0 0.0
2018-Feb-20 15:00N 35°22' E 139°53'0 0.0
2018-Feb-20 14:30N 35°22' E 139°53'0 0.1
2018-Feb-20 13:57N 35°22' E 139°53'0 0.1
2018-Feb-20 13:24N 35°22' E 139°53'0 0.0
2018-Feb-20 12:54N 35°22' E 139°53'0 0.0
2018-Feb-20 12:24N 35°22' E 139°53'0 0.0
2018-Feb-20 11:57N 35°22' E 139°53'0 0.1
2018-Feb-20 11:30N 35°22' E 139°53'0 0.0
2018-Feb-20 11:00N 35°22' E 139°53'0 0.1
2018-Feb-20 10:24N 35°22' E 139°53'0 0.0
2018-Feb-20 10:00N 35°22' E 139°53'0 0.0
2018-Feb-20 09:24N 35°22' E 139°53'0 0.2
2018-Feb-20 09:00N 35°22' E 139°53'0 0.0
2018-Feb-20 08:30N 35°22' E 139°53'0 0.0
2018-Feb-20 08:00N 35°22' E 139°53'0 0.0
2018-Feb-20 07:24N 35°22' E 139°53'0 0.0
2018-Feb-20 07:00N 35°22' E 139°53'0 0.1
2018-Feb-20 06:27N 35°22' E 139°53'0 0.0
2018-Feb-20 06:00N 35°22' E 139°53'0 0.8
2018-Feb-20 05:27N 35°22' E 139°53'0 0.0
2018-Feb-20 05:00N 35°22' E 139°53'0 0.0
2018-Feb-20 04:30N 35°22' E 139°53'0 0.0
2018-Feb-20 04:00N 35°22' E 139°53'0 0.0
2018-Feb-20 03:30N 35°22' E 139°53'0 0.0
2018-Feb-20 03:00N 35°22' E 139°53'0 0.0
2018-Feb-20 02:30N 35°22' E 139°53'0 0.0
2018-Feb-20 02:00N 35°22' E 139°53'0 0.0
2018-Feb-20 01:30N 35°22' E 139°53'0 0.0
2018-Feb-20 01:00N 35°22' E 139°53'0 0.0
2018-Feb-20 00:30N 35°22' E 139°53'0 0.1
2018-Feb-20 00:00N 35°22' E 139°53'3 5.5
2018-Feb-19 23:30N 35°24' E 139°51'3 5.5
2018-Feb-19 23:00N 35°23' E 139°47'510.1
2018-Feb-19 22:30N 35°19' E 139°44'611.0
2018-Feb-19 22:00N 35°14' E 139°47'611.9
2018-Feb-19 21:31N 35°08' E 139°46'39910.3
2018-Feb-18 06:55N 41°39' E 141°28'16 0.4
2018-Feb-16 19:26N 41°51' E 141°14'512.3
2018-Feb-16 19:00N 41°46' E 141°13'712.5
2018-Feb-16 18:27N 41°42' E 141°06'614.3
2018-Feb-16 18:01N 41°39' E 140°58'816.9
2018-Feb-16 17:30N 41°35' E 140°48'816.1
2018-Feb-16 16:59N 41°32' E 140°37'816.2
2018-Feb-16 16:30N 41°28' E 140°28'2413.3
2018-Feb-16 14:42N 41°29' E 139°56'313.8
2018-Feb-16 14:30N 41°32' E 139°55'913.3
2018-Feb-16 13:48N 41°41' E 139°51'1113.5
2018-Feb-16 13:01N 41°51' E 139°49'013.7
2018-Feb-16 13:00N 41°51' E 139°49'813.4
2018-Feb-16 12:26N 41°59' E 139°47'17 0.5
2018-Feb-15 02:50N 41°42' E 139°51'11 9.9
2018-Feb-15 01:46N 41°32' E 139°56'18 8.2
2018-Feb-14 23:33N 41°24' E 140°17'411.6
2018-Feb-14 23:14N 41°26' E 140°21'311.6
2018-Feb-14 22:58N 41°28' E 140°24'511.4
2018-Feb-14 22:30N 41°32' E 140°30'611.2
2018-Feb-14 22:00N 41°36' E 140°34'611.8
2018-Feb-14 21:30N 41°41' E 140°38'5 9.4
2018-Feb-14 21:00N 41°46' E 140°40'0 0.2
2018-Feb-14 20:31N 41°46' E 140°40'0 0.0
2018-Feb-14 20:01N 41°46' E 140°40'0 0.0
2018-Feb-14 19:31N 41°46' E 140°40'0 0.1
2018-Feb-14 19:00N 41°46' E 140°40'0 0.0
2018-Feb-14 18:20N 41°46' E 140°40'0 0.1
2018-Feb-14 17:59N 41°46' E 140°40'0 0.1
2018-Feb-14 17:29N 41°46' E 140°40'0 0.0
2018-Feb-14 16:56N 41°46' E 140°40'0 0.0
2018-Feb-14 16:26N 41°46' E 140°40'0 0.0
2018-Feb-14 15:59N 41°46' E 140°40'0 0.0
2018-Feb-14 15:23N 41°46' E 140°40'0 0.1
2018-Feb-14 14:56N 41°46' E 140°40'0 0.1
2018-Feb-14 14:26N 41°46' E 140°40'0 0.0
2018-Feb-14 13:59N 41°46' E 140°40'0 0.1
2018-Feb-14 13:26N 41°46' E 140°40'0 0.0
2018-Feb-14 12:56N 41°46' E 140°40'0 0.1
2018-Feb-14 12:29N 41°46' E 140°40'0 0.0
2018-Feb-14 11:59N 41°46' E 140°40'0 0.1
2018-Feb-14 11:29N 41°46' E 140°40'0 0.1
2018-Feb-14 10:56N 41°46' E 140°40'0 0.1
2018-Feb-14 10:30N 41°46' E 140°40'5 9.4
2018-Feb-14 10:01N 41°43' E 140°44'714.1
2018-Feb-14 09:30N 41°40' E 140°53'714.0
2018-Feb-14 09:01N 41°37' E 141°02'714.1
2018-Feb-14 08:30N 41°34' E 141°11'611.9
2018-Feb-14 08:00N 41°32' E 141°18'612.0
2018-Feb-14 07:30N 41°30' E 141°25'394 9.4
2018-Feb-12 13:31N 35°00' E 140°12'512.2
2018-Feb-12 13:09N 34°58' E 140°07'20 8.3
2018-Feb-12 10:47N 35°02' E 139°44'311.1
2018-Feb-12 10:30N 35°05' E 139°45'611.2
2018-Feb-12 10:00N 35°11' E 139°46'612.4
2018-Feb-12 09:30N 35°17' E 139°45'612.8
2018-Feb-12 09:00N 35°23' E 139°42'5 9.8
2018-Feb-12 08:31N 35°25' E 139°48'5 9.6
2018-Feb-12 08:00N 35°22' E 139°53'0 0.0
2018-Feb-12 07:30N 35°22' E 139°53'0 0.0
2018-Feb-12 06:57N 35°22' E 139°53'0 0.1
2018-Feb-12 06:30N 35°22' E 139°53'0 0.0
2018-Feb-12 06:00N 35°22' E 139°53'0 0.0
2018-Feb-12 05:30N 35°22' E 139°53'0 0.0
2018-Feb-12 04:57N 35°22' E 139°53'0 0.0
2018-Feb-12 04:30N 35°22' E 139°53'0 0.0
2018-Feb-12 04:00N 35°22' E 139°53'1 1.3
2018-Feb-12 03:22N 35°21' E 139°54'0 0.0
2018-Feb-12 02:49N 35°21' E 139°54'0 0.0
2018-Feb-12 02:25N 35°21' E 139°54'0 0.0
2018-Feb-12 01:58N 35°21' E 139°54'0 0.0
2018-Feb-12 01:28N 35°21' E 139°54'0 0.0
2018-Feb-12 00:52N 35°21' E 139°54'0 0.0
2018-Feb-12 00:25N 35°21' E 139°54'0 0.0
2018-Feb-11 23:58N 35°21' E 139°54'0 0.0
2018-Feb-11 23:28N 35°21' E 139°54'0 0.0
2018-Feb-11 22:55N 35°21' E 139°54'0 0.0
2018-Feb-11 22:19N 35°21' E 139°54'0 0.0
2018-Feb-11 21:55N 35°21' E 139°54'0 0.0
2018-Feb-11 21:19N 35°21' E 139°54'0 0.0
2018-Feb-11 20:49N 35°21' E 139°54'0 0.0
2018-Feb-11 20:28N 35°21' E 139°54'0 0.0
2018-Feb-11 19:58N 35°21' E 139°54'0 0.0
2018-Feb-11 19:22N 35°21' E 139°54'0 0.0
2018-Feb-11 18:58N 35°21' E 139°54'0 0.0
2018-Feb-11 18:28N 35°21' E 139°54'0 0.0
2018-Feb-11 17:52N 35°21' E 139°54'0 0.0
2018-Feb-11 17:28N 35°21' E 139°54'0 0.0
2018-Feb-11 16:58N 35°21' E 139°54'0 0.0
2018-Feb-11 16:28N 35°21' E 139°54'0 0.0
2018-Feb-11 15:58N 35°21' E 139°54'0 0.0
2018-Feb-11 15:28N 35°21' E 139°54'0 0.0
2018-Feb-11 14:58N 35°21' E 139°54'0 0.0
2018-Feb-11 14:25N 35°21' E 139°54'0 0.0
2018-Feb-11 13:58N 35°21' E 139°54'0 0.0
2018-Feb-11 13:19N 35°21' E 139°54'0 0.0
2018-Feb-11 12:58N 35°21' E 139°54'0 0.0
2018-Feb-11 12:19N 35°21' E 139°54'0 0.0
2018-Feb-11 11:49N 35°21' E 139°54'0 0.0
2018-Feb-11 11:28N 35°21' E 139°54'0 0.0
2018-Feb-11 10:58N 35°21' E 139°54'  
Track history (hours):
 
Tides and Currents Weather Stations Pressure Air Temp Water Temp Dewpoint Dewpoint Depression Visibility Wind Speed Wind Dir Waves Ship Positions

Dai65tenjinmaru

Last reported at 2018-Feb-21 10:49 UTC. Time now 2018-Feb-23 02:37 UTC.
Position N 35°01' E 140°11'.

Length 86 m; draft 5.6 m.

Type: Cargo ship. MMSI: 431301101.

Date/timePositionNaut miles runAvg speedWind from/ knotsBaromVisibWave heightAir tempDewpointWater temp
2018-Feb-21 10:49N 35°01' E 140°11'512.4
2018-Feb-21 10:27N 34°58' E 140°06'19 7.2
2018-Feb-21 07:46N 35°05' E 139°44'311.2
2018-Feb-21 07:30N 35°08' E 139°45'611.6
2018-Feb-21 07:00N 35°14' E 139°46'611.4
2018-Feb-21 06:30N 35°19' E 139°43'510.7
2018-Feb-21 06:00N 35°24' E 139°43'510.1
2018-Feb-21 05:30N 35°29' E 139°42'1 2.3
2018-Feb-21 05:00N 35°30' E 139°43'0 0.0
2018-Feb-21 04:30N 35°30' E 139°43'0 0.0
2018-Feb-21 04:00N 35°30' E 139°43'0 0.0
2018-Feb-21 03:30N 35°30' E 139°43'0 0.0
2018-Feb-21 03:00N 35°30' E 139°43'0 0.0
2018-Feb-21 02:30N 35°30' E 139°43'0 0.0
2018-Feb-21 02:00N 35°30' E 139°43'0 0.0
2018-Feb-21 01:30N 35°30' E 139°43'0 0.0
2018-Feb-21 01:01N 35°30' E 139°43'0 0.1
2018-Feb-21 00:30N 35°30' E 139°43'2 4.6
2018-Feb-21 00:00N 35°28' E 139°42'611.6
2018-Feb-20 23:30N 35°26' E 139°49'5 9.6
2018-Feb-20 23:00N 35°22' E 139°53'0 0.3
2018-Feb-20 22:30N 35°22' E 139°53'0 0.0
2018-Feb-20 21:54N 35°22' E 139°53'0 0.0
2018-Feb-20 21:30N 35°22' E 139°53'0 0.1
2018-Feb-20 21:00N 35°22' E 139°53'0 0.0
2018-Feb-20 20:30N 35°22' E 139°53'0 0.0
2018-Feb-20 20:00N 35°22' E 139°53'0 0.0
2018-Feb-20 19:27N 35°22' E 139°53'0 0.0
2018-Feb-20 19:00N 35°22' E 139°53'0 0.0
2018-Feb-20 18:27N 35°22' E 139°53'0 0.0
2018-Feb-20 18:00N 35°22' E 139°53'0 0.0
2018-Feb-20 17:30N 35°22' E 139°53'0 0.0
2018-Feb-20 17:00N 35°22' E 139°53'0 0.0
2018-Feb-20 16:24N 35°22' E 139°53'0 0.1
2018-Feb-20 16:00N 35°22' E 139°53'0 0.1
2018-Feb-20 15:30N 35°22' E 139°53'0 0.0
2018-Feb-20 15:00N 35°22' E 139°53'0 0.0
2018-Feb-20 14:30N 35°22' E 139°53'0 0.1
2018-Feb-20 13:57N 35°22' E 139°53'0 0.1
2018-Feb-20 13:24N 35°22' E 139°53'0 0.0
2018-Feb-20 12:54N 35°22' E 139°53'0 0.0
2018-Feb-20 12:24N 35°22' E 139°53'0 0.0
2018-Feb-20 11:57N 35°22' E 139°53'0 0.1
2018-Feb-20 11:30N 35°22' E 139°53'0 0.0
2018-Feb-20 11:00N 35°22' E 139°53'0 0.1
2018-Feb-20 10:24N 35°22' E 139°53'0 0.0
2018-Feb-20 10:00N 35°22' E 139°53'0 0.0
2018-Feb-20 09:24N 35°22' E 139°53'0 0.2
2018-Feb-20 09:00N 35°22' E 139°53'0 0.0
2018-Feb-20 08:30N 35°22' E 139°53'0 0.0
2018-Feb-20 08:00N 35°22' E 139°53'0 0.0
2018-Feb-20 07:24N 35°22' E 139°53'0 0.0
2018-Feb-20 07:00N 35°22' E 139°53'0 0.1
2018-Feb-20 06:27N 35°22' E 139°53'0 0.0
2018-Feb-20 06:00N 35°22' E 139°53'0 0.8
2018-Feb-20 05:27N 35°22' E 139°53'0 0.0
2018-Feb-20 05:00N 35°22' E 139°53'0 0.0
2018-Feb-20 04:30N 35°22' E 139°53'0 0.0
2018-Feb-20 04:00N 35°22' E 139°53'0 0.0
2018-Feb-20 03:30N 35°22' E 139°53'0 0.0
2018-Feb-20 03:00N 35°22' E 139°53'0 0.0
2018-Feb-20 02:30N 35°22' E 139°53'0 0.0
2018-Feb-20 02:00N 35°22' E 139°53'0 0.0
2018-Feb-20 01:30N 35°22' E 139°53'0 0.0
2018-Feb-20 01:00N 35°22' E 139°53'0 0.0
2018-Feb-20 00:30N 35°22' E 139°53'0 0.1
2018-Feb-20 00:00N 35°22' E 139°53'3 5.5
2018-Feb-19 23:30N 35°24' E 139°51'3 5.5
2018-Feb-19 23:00N 35°23' E 139°47'510.1
2018-Feb-19 22:30N 35°19' E 139°44'611.0
2018-Feb-19 22:00N 35°14' E 139°47'611.9
2018-Feb-19 21:31N 35°08' E 139°46'39910.3
2018-Feb-18 06:55N 41°39' E 141°28'16 0.4
2018-Feb-16 19:26N 41°51' E 141°14'512.3
2018-Feb-16 19:00N 41°46' E 141°13'712.5
2018-Feb-16 18:27N 41°42' E 141°06'614.3
2018-Feb-16 18:01N 41°39' E 140°58'816.9
2018-Feb-16 17:30N 41°35' E 140°48'816.1
2018-Feb-16 16:59N 41°32' E 140°37'816.2
2018-Feb-16 16:30N 41°28' E 140°28'2413.3
2018-Feb-16 14:42N 41°29' E 139°56'313.8
2018-Feb-16 14:30N 41°32' E 139°55'913.3
2018-Feb-16 13:48N 41°41' E 139°51'1113.5
2018-Feb-16 13:01N 41°51' E 139°49'013.7
2018-Feb-16 13:00N 41°51' E 139°49'813.4
2018-Feb-16 12:26N 41°59' E 139°47'17 0.5
2018-Feb-15 02:50N 41°42' E 139°51'11 9.9
2018-Feb-15 01:46N 41°32' E 139°56'18 8.2
2018-Feb-14 23:33N 41°24' E 140°17'411.6
2018-Feb-14 23:14N 41°26' E 140°21'311.6
2018-Feb-14 22:58N 41°28' E 140°24'511.4
2018-Feb-14 22:30N 41°32' E 140°30'611.2
2018-Feb-14 22:00N 41°36' E 140°34'611.8
2018-Feb-14 21:30N 41°41' E 140°38'5 9.4
2018-Feb-14 21:00N 41°46' E 140°40'0 0.2
2018-Feb-14 20:31N 41°46' E 140°40'0 0.0
2018-Feb-14 20:01N 41°46' E 140°40'0 0.0
2018-Feb-14 19:31N 41°46' E 140°40'0 0.1
2018-Feb-14 19:00N 41°46' E 140°40'0 0.0
2018-Feb-14 18:20N 41°46' E 140°40'0 0.1
2018-Feb-14 17:59N 41°46' E 140°40'0 0.1
2018-Feb-14 17:29N 41°46' E 140°40'0 0.0
2018-Feb-14 16:56N 41°46' E 140°40'0 0.0
2018-Feb-14 16:26N 41°46' E 140°40'0 0.0
2018-Feb-14 15:59N 41°46' E 140°40'0 0.0
2018-Feb-14 15:23N 41°46' E 140°40'0 0.1
2018-Feb-14 14:56N 41°46' E 140°40'0 0.1
2018-Feb-14 14:26N 41°46' E 140°40'0 0.0
2018-Feb-14 13:59N 41°46' E 140°40'0 0.1
2018-Feb-14 13:26N 41°46' E 140°40'0 0.0
2018-Feb-14 12:56N 41°46' E 140°40'0 0.1
2018-Feb-14 12:29N 41°46' E 140°40'0 0.0
2018-Feb-14 11:59N 41°46' E 140°40'0 0.1
2018-Feb-14 11:29N 41°46' E 140°40'0 0.1
2018-Feb-14 10:56N 41°46' E 140°40'0 0.1
2018-Feb-14 10:30N 41°46' E 140°40'5 9.4
2018-Feb-14 10:01N 41°43' E 140°44'714.1
2018-Feb-14 09:30N 41°40' E 140°53'714.0
2018-Feb-14 09:01N 41°37' E 141°02'714.1
2018-Feb-14 08:30N 41°34' E 141°11'611.9
2018-Feb-14 08:00N 41°32' E 141°18'612.0
2018-Feb-14 07:30N 41°30' E 141°25'394 9.4
2018-Feb-12 13:31N 35°00' E 140°12'512.2
2018-Feb-12 13:09N 34°58' E 140°07'20 8.3
2018-Feb-12 10:47N 35°02' E 139°44'311.1
2018-Feb-12 10:30N 35°05' E 139°45'611.2
2018-Feb-12 10:00N 35°11' E 139°46'612.4
2018-Feb-12 09:30N 35°17' E 139°45'612.8
2018-Feb-12 09:00N 35°23' E 139°42'5 9.8
2018-Feb-12 08:31N 35°25' E 139°48'5 9.6
2018-Feb-12 08:00N 35°22' E 139°53'0 0.0
2018-Feb-12 07:30N 35°22' E 139°53'0 0.0
2018-Feb-12 06:57N 35°22' E 139°53'0 0.1
2018-Feb-12 06:30N 35°22' E 139°53'0 0.0
2018-Feb-12 06:00N 35°22' E 139°53'0 0.0
2018-Feb-12 05:30N 35°22' E 139°53'0 0.0
2018-Feb-12 04:57N 35°22' E 139°53'0 0.0
2018-Feb-12 04:30N 35°22' E 139°53'0 0.0
2018-Feb-12 04:00N 35°22' E 139°53'1 1.3
2018-Feb-12 03:22N 35°21' E 139°54'0 0.0
2018-Feb-12 02:49N 35°21' E 139°54'0 0.0
2018-Feb-12 02:25N 35°21' E 139°54'0 0.0
2018-Feb-12 01:58N 35°21' E 139°54'0 0.0
2018-Feb-12 01:28N 35°21' E 139°54'0 0.0
2018-Feb-12 00:52N 35°21' E 139°54'0 0.0
2018-Feb-12 00:25N 35°21' E 139°54'0 0.0
2018-Feb-11 23:58N 35°21' E 139°54'0 0.0
2018-Feb-11 23:28N 35°21' E 139°54'0 0.0
2018-Feb-11 22:55N 35°21' E 139°54'0 0.0
2018-Feb-11 22:19N 35°21' E 139°54'0 0.0
2018-Feb-11 21:55N 35°21' E 139°54'0 0.0
2018-Feb-11 21:19N 35°21' E 139°54'0 0.0
2018-Feb-11 20:49N 35°21' E 139°54'0 0.0
2018-Feb-11 20:28N 35°21' E 139°54'0 0.0
2018-Feb-11 19:58N 35°21' E 139°54'0 0.0
2018-Feb-11 19:22N 35°21' E 139°54'0 0.0
2018-Feb-11 18:58N 35°21' E 139°54'0 0.0
2018-Feb-11 18:28N 35°21' E 139°54'0 0.0
2018-Feb-11 17:52N 35°21' E 139°54'0 0.0
2018-Feb-11 17:28N 35°21' E 139°54'0 0.0
2018-Feb-11 16:58N 35°21' E 139°54'0 0.0
2018-Feb-11 16:28N 35°21' E 139°54'0 0.0
2018-Feb-11 15:58N 35°21' E 139°54'0 0.0
2018-Feb-11 15:28N 35°21' E 139°54'0 0.0
2018-Feb-11 14:58N 35°21' E 139°54'0 0.0
2018-Feb-11 14:25N 35°21' E 139°54'0 0.0
2018-Feb-11 13:58N 35°21' E 139°54'0 0.0
2018-Feb-11 13:19N 35°21' E 139°54'0 0.0
2018-Feb-11 12:58N 35°21' E 139°54'0 0.0
2018-Feb-11 12:19N 35°21' E 139°54'0 0.0
2018-Feb-11 11:49N 35°21' E 139°54'0 0.0
2018-Feb-11 11:28N 35°21' E 139°54'0 0.0
2018-Feb-11 10:58N 35°21' E 139°54'  

Dump ship's entire track history